createdAt,value
2022-07-29T00:00:00.005Z,24.53
2022-07-29T00:02:27.662Z,24.73
2022-07-29T00:04:54.758Z,24.73
2022-07-29T00:07:21.453Z,24.28
2022-07-29T00:09:52.180Z,24.21
2022-07-29T00:12:25.488Z,23.95
2022-07-29T00:14:55.412Z,23.74
2022-07-29T00:17:23.529Z,23.57
2022-07-29T00:19:50.270Z,23.59
2022-07-29T00:22:16.945Z,23.41
2022-07-29T00:24:43.639Z,23.45
2022-07-29T00:27:10.329Z,23.47
2022-07-29T00:29:37.060Z,23.23
2022-07-29T00:32:04.002Z,23.37
2022-07-29T00:34:31.055Z,23.05
2022-07-29T00:36:58.251Z,22.80
2022-07-29T00:39:25.029Z,22.65
2022-07-29T00:41:54.289Z,22.63
2022-07-29T00:44:21.003Z,22.69
2022-07-29T00:46:48.024Z,22.55
2022-07-29T00:49:14.944Z,22.68
2022-07-29T00:51:41.883Z,22.78
2022-07-29T00:54:08.806Z,22.95
2022-07-29T00:56:35.654Z,23.16
2022-07-29T00:59:02.588Z,23.39
2022-07-29T01:01:29.478Z,23.55
2022-07-29T01:03:56.461Z,23.26
2022-07-29T01:06:25.869Z,23.12
2022-07-29T01:08:52.689Z,23.06
2022-07-29T01:11:20.196Z,23.23
2022-07-29T01:13:48.716Z,23.12
2022-07-29T01:16:36.373Z,23.04
2022-07-29T01:19:24.047Z,23.06
2022-07-29T01:21:50.707Z,22.99
2022-07-29T01:24:31.206Z,23.06
2022-07-29T01:27:25.337Z,23.03
2022-07-29T01:30:05.404Z,23.07
2022-07-29T01:32:41.157Z,23.23
2022-07-29T01:35:27.249Z,23.15
2022-07-29T01:38:07.878Z,23.32
2022-07-29T01:41:02.413Z,22.86
2022-07-29T01:43:56.636Z,23.07
2022-07-29T01:46:34.344Z,23.29
2022-07-29T01:49:11.023Z,23.62
2022-07-29T01:51:58.576Z,24.05
2022-07-29T01:54:51.756Z,24.02
2022-07-29T01:57:26.259Z,24.13
2022-07-29T01:59:57.257Z,24.33
2022-07-29T02:02:27.178Z,24.24
2022-07-29T02:04:57.280Z,24.03
2022-07-29T02:07:29.187Z,23.86
2022-07-29T02:09:59.135Z,23.28
2022-07-29T02:12:29.456Z,23.12
2022-07-29T02:15:02.397Z,23.00
2022-07-29T02:17:40.839Z,23.08
2022-07-29T02:20:10.521Z,22.88
2022-07-29T02:22:40.551Z,23.12
2022-07-29T02:25:13.809Z,23.32
2022-07-29T02:27:43.605Z,23.44
2022-07-29T02:30:11.080Z,23.37
2022-07-29T02:32:41.027Z,23.42
2022-07-29T02:35:10.218Z,23.21
2022-07-29T02:37:39.418Z,22.76
2022-07-29T02:40:12.025Z,22.74
2022-07-29T02:42:42.210Z,22.61
2022-07-29T02:45:10.378Z,22.53
2022-07-29T02:47:49.511Z,22.31
2022-07-29T02:50:35.586Z,22.39
2022-07-29T02:53:09.937Z,22.45
2022-07-29T02:55:55.950Z,22.93
2022-07-29T02:58:35.586Z,22.82
2022-07-29T03:01:21.651Z,22.60
2022-07-29T03:03:52.817Z,22.62
2022-07-29T03:06:31.369Z,22.92
2022-07-29T03:09:12.850Z,23.22
2022-07-29T03:11:50.364Z,23.16
2022-07-29T03:14:19.807Z,23.08
2022-07-29T03:16:48.052Z,23.51
2022-07-29T03:19:15.456Z,23.72
2022-07-29T03:21:42.543Z,23.57
2022-07-29T03:24:10.804Z,23.15
2022-07-29T03:26:37.971Z,23.59
2022-07-29T03:29:04.885Z,23.98
2022-07-29T03:31:31.792Z,23.44
2022-07-29T03:34:00.667Z,23.31
2022-07-29T03:36:27.657Z,23.22
2022-07-29T03:38:56.367Z,23.18
2022-07-29T03:41:26.621Z,23.69
2022-07-29T03:43:55.969Z,23.58
2022-07-29T03:46:29.362Z,23.80
2022-07-29T03:49:02.202Z,23.35
2022-07-29T03:51:31.538Z,22.80
2022-07-29T03:54:06.420Z,23.34
2022-07-29T03:56:42.070Z,22.94
2022-07-29T03:59:11.606Z,23.07
2022-07-29T04:01:39.991Z,22.88
2022-07-29T04:04:06.949Z,23.56
2022-07-29T04:06:44.973Z,23.62
2022-07-29T04:09:13.086Z,23.56
2022-07-29T04:12:02.383Z,23.68
2022-07-29T04:14:48.236Z,23.73
2022-07-29T04:17:15.152Z,23.26
2022-07-29T04:19:42.007Z,23.53
2022-07-29T04:22:08.822Z,23.67
2022-07-29T04:24:36.040Z,23.57
2022-07-29T04:27:02.886Z,23.08
2022-07-29T04:29:29.616Z,22.87
2022-07-29T04:31:56.591Z,22.80
2022-07-29T04:34:23.353Z,22.82
2022-07-29T04:36:55.554Z,22.78
2022-07-29T04:39:23.324Z,22.84
2022-07-29T04:41:51.279Z,23.22
2022-07-29T04:44:19.860Z,23.43
2022-07-29T04:46:46.842Z,23.55
2022-07-29T04:49:13.682Z,22.96
2022-07-29T04:51:40.490Z,23.24
2022-07-29T04:54:07.369Z,23.46
2022-07-29T04:56:34.126Z,23.41
2022-07-29T04:59:00.861Z,23.02
2022-07-29T05:01:27.883Z,23.55
2022-07-29T05:03:59.883Z,23.45
2022-07-29T05:06:27.297Z,23.26
2022-07-29T05:08:53.977Z,23.47
2022-07-29T05:11:22.439Z,23.34
2022-07-29T05:13:50.645Z,22.97
2022-07-29T05:16:17.413Z,22.87
2022-07-29T05:18:45.662Z,22.56
2022-07-29T05:21:14.985Z,22.81
2022-07-29T05:23:41.637Z,22.98
2022-07-29T05:26:08.299Z,22.70
2022-07-29T05:28:35.522Z,23.39
2022-07-29T05:31:02.291Z,23.36
2022-07-29T05:33:35.271Z,23.56
2022-07-29T05:36:06.221Z,23.56
2022-07-29T05:38:33.222Z,23.94
2022-07-29T05:41:00.124Z,23.89
2022-07-29T05:43:28.770Z,24.00
2022-07-29T05:45:55.907Z,24.12
2022-07-29T05:48:22.767Z,24.33
2022-07-29T05:50:49.440Z,24.27
2022-07-29T05:53:18.981Z,24.34
2022-07-29T05:55:47.602Z,24.37
2022-07-29T05:58:14.268Z,24.26
2022-07-29T06:00:41.233Z,24.19
2022-07-29T06:03:08.191Z,24.45
2022-07-29T06:05:35.058Z,24.21
2022-07-29T06:08:01.863Z,23.90
2022-07-29T06:10:28.540Z,23.74
2022-07-29T06:12:55.770Z,23.47
2022-07-29T06:15:22.424Z,23.22
2022-07-29T06:17:58.914Z,22.88
2022-07-29T06:20:31.281Z,22.67
2022-07-29T06:22:58.519Z,22.85
2022-07-29T06:25:25.220Z,22.58
2022-07-29T06:27:53.653Z,22.89
2022-07-29T06:30:20.493Z,22.83
2022-07-29T06:32:47.244Z,22.62
2022-07-29T06:38:00.677Z,22.52
2022-07-29T06:40:27.564Z,22.45
2022-07-29T06:42:54.416Z,22.66
2022-07-29T06:45:21.271Z,22.41
2022-07-29T06:47:47.935Z,22.52
2022-07-29T06:50:14.643Z,22.64
2022-07-29T06:52:41.390Z,22.75
2022-07-29T06:55:08.994Z,23.31
2022-07-29T06:57:36.001Z,23.35
2022-07-29T07:00:03.442Z,23.58
2022-07-29T07:02:30.224Z,23.62
2022-07-29T07:04:56.956Z,23.85
2022-07-29T07:07:23.935Z,24.55
2022-07-29T07:09:50.654Z,25.00
2022-07-29T07:12:17.551Z,25.40
2022-07-29T07:14:44.352Z,25.41
2022-07-29T07:17:11.000Z,25.43
2022-07-29T07:19:37.749Z,25.30
2022-07-29T07:22:04.818Z,25.00
2022-07-29T07:24:31.608Z,24.78
2022-07-29T07:26:58.447Z,24.98
2022-07-29T07:29:25.259Z,24.58
2022-07-29T07:31:53.506Z,25.17
2022-07-29T07:34:28.317Z,26.03
2022-07-29T07:36:56.436Z,26.48
2022-07-29T07:39:23.198Z,27.09
2022-07-29T07:41:49.923Z,27.53
2022-07-29T07:44:17.203Z,27.29
2022-07-29T07:46:44.347Z,26.31
2022-07-29T07:49:12.044Z,27.47
2022-07-29T07:51:38.784Z,26.25
2022-07-29T07:54:05.750Z,25.74
2022-07-29T07:56:35.292Z,26.00
2022-07-29T07:59:02.245Z,25.77
2022-07-29T08:01:29.072Z,25.65
2022-07-29T08:04:15.195Z,25.66
2022-07-29T08:06:42.578Z,25.25
2022-07-29T08:09:28.325Z,25.06
2022-07-29T08:11:56.752Z,25.26
2022-07-29T08:14:23.462Z,25.16
2022-07-29T08:16:50.301Z,24.91
2022-07-29T08:19:17.139Z,25.46
2022-07-29T08:21:43.913Z,25.28
2022-07-29T08:24:10.671Z,25.40
2022-07-29T08:26:37.522Z,25.57
2022-07-29T08:29:04.248Z,25.58
2022-07-29T08:31:31.053Z,25.27
2022-07-29T08:33:57.883Z,25.22
2022-07-29T08:36:25.553Z,25.33
2022-07-29T08:38:52.337Z,25.02
2022-07-29T08:41:20.956Z,24.99
2022-07-29T08:43:49.487Z,24.83
2022-07-29T08:46:17.059Z,25.22
2022-07-29T08:48:44.592Z,25.34
2022-07-29T08:51:16.456Z,25.34
2022-07-29T08:53:45.652Z,25.56
2022-07-29T08:56:13.865Z,25.20
2022-07-29T08:58:42.004Z,24.92
2022-07-29T09:01:15.121Z,25.15
2022-07-29T09:03:45.572Z,24.96
2022-07-29T09:06:18.948Z,24.78
2022-07-29T09:08:46.269Z,23.94
2022-07-29T09:11:14.472Z,24.04
2022-07-29T09:13:41.690Z,23.67
2022-07-29T09:16:09.491Z,23.81
2022-07-29T09:18:42.702Z,24.09
2022-07-29T09:21:12.585Z,24.59
2022-07-29T09:23:39.264Z,24.18
2022-07-29T09:26:06.984Z,24.50
2022-07-29T09:28:36.550Z,24.23
2022-07-29T09:31:03.450Z,24.18
2022-07-29T09:33:35.384Z,24.49
2022-07-29T09:36:09.474Z,24.26
2022-07-29T09:38:37.289Z,24.95
2022-07-29T09:41:06.703Z,24.52
2022-07-29T09:43:35.453Z,24.48
2022-07-29T09:46:12.819Z,24.77
2022-07-29T09:48:39.791Z,24.13
2022-07-29T09:51:06.590Z,24.73
2022-07-29T09:53:38.971Z,24.99
2022-07-29T09:56:06.145Z,24.51
2022-07-29T09:58:33.392Z,24.46
2022-07-29T10:01:02.509Z,24.95
2022-07-29T10:03:29.279Z,25.33
2022-07-29T10:06:25.201Z,24.69
2022-07-29T10:08:52.422Z,25.50
2022-07-29T10:11:22.794Z,25.48
2022-07-29T10:13:49.665Z,24.49
2022-07-29T10:16:17.529Z,25.69
2022-07-29T10:18:45.441Z,25.40
2022-07-29T10:21:34.860Z,26.02
2022-07-29T10:24:01.353Z,25.98
2022-07-29T10:26:30.424Z,25.43
2022-07-29T10:28:57.204Z,25.58
2022-07-29T10:31:37.451Z,25.83
2022-07-29T10:34:33.924Z,26.14
2022-07-29T10:37:18.151Z,25.76
2022-07-29T10:40:11.711Z,25.68
2022-07-29T10:42:43.591Z,25.67
2022-07-29T10:45:11.760Z,25.44
2022-07-29T10:47:39.204Z,25.49
2022-07-29T10:50:07.009Z,25.77
2022-07-29T10:52:54.652Z,25.84
2022-07-29T10:55:33.469Z,25.98
2022-07-29T10:58:23.866Z,25.65
2022-07-29T11:00:52.852Z,25.43
2022-07-29T11:03:49.652Z,25.14
2022-07-29T11:06:26.463Z,25.21
2022-07-29T11:09:16.959Z,25.12
2022-07-29T11:14:58.247Z,24.24
2022-07-29T11:17:24.988Z,25.16
2022-07-29T11:20:31.177Z,24.08
2022-07-29T11:22:59.537Z,24.04
2022-07-29T11:25:50.832Z,23.29
2022-07-29T11:28:25.038Z,22.52
2022-07-29T11:30:58.007Z,21.89
2022-07-29T11:33:54.293Z,21.26
2022-07-29T11:36:28.377Z,20.84
2022-07-29T11:39:27.356Z,20.65
2022-07-29T11:42:28.528Z,20.37
2022-07-29T11:45:09.060Z,20.35
2022-07-29T11:47:55.955Z,20.58
2022-07-29T11:50:36.592Z,21.04
2022-07-29T11:53:11.787Z,20.42
2022-07-29T11:55:51.356Z,20.76
2022-07-29T11:58:25.020Z,21.33
2022-07-29T12:00:53.141Z,20.55
2022-07-29T12:03:33.428Z,20.28
2022-07-29T12:06:07.602Z,20.49
2022-07-29T12:08:42.162Z,21.15
2022-07-29T12:11:17.274Z,21.17
2022-07-29T12:13:44.003Z,21.38
2022-07-29T12:16:12.779Z,21.26
2022-07-29T12:18:41.609Z,21.11
2022-07-29T12:21:08.434Z,21.71
2022-07-29T12:23:35.636Z,21.25
2022-07-29T12:26:07.646Z,21.29
2022-07-29T12:28:39.317Z,21.20
2022-07-29T12:31:06.384Z,21.28
2022-07-29T12:33:35.779Z,21.24
2022-07-29T12:36:07.633Z,21.94
2022-07-29T12:38:36.662Z,21.57
2022-07-29T12:41:04.460Z,22.08
2022-07-29T12:43:32.244Z,21.63
2022-07-29T12:46:12.140Z,22.10
2022-07-29T12:48:44.212Z,22.01
2022-07-29T12:51:12.197Z,21.38
2022-07-29T12:53:39.053Z,21.23
2022-07-29T12:56:20.710Z,21.22
2022-07-29T12:58:55.057Z,21.03
2022-07-29T13:01:22.620Z,21.26
2022-07-29T13:03:56.786Z,21.41
2022-07-29T13:06:37.749Z,21.06
2022-07-29T13:09:09.435Z,21.37
2022-07-29T13:11:46.568Z,21.49
2022-07-29T13:14:32.515Z,21.54
2022-07-29T13:17:06.912Z,21.57
2022-07-29T13:19:45.010Z,21.12
2022-07-29T13:22:18.703Z,21.34
2022-07-29T13:24:58.832Z,21.43
2022-07-29T13:27:28.069Z,21.86
2022-07-29T13:29:56.746Z,21.94
2022-07-29T13:32:28.258Z,21.83
2022-07-29T13:34:57.319Z,22.06
2022-07-29T13:37:24.177Z,22.10
2022-07-29T13:39:53.257Z,22.23
2022-07-29T13:42:20.685Z,22.24
2022-07-29T13:44:47.439Z,22.11
2022-07-29T13:47:14.097Z,22.21
2022-07-29T13:49:41.066Z,22.41
2022-07-29T13:52:07.758Z,22.38
2022-07-29T13:54:38.799Z,22.45
2022-07-29T13:57:08.786Z,23.06
2022-07-29T13:59:35.453Z,23.20
2022-07-29T14:02:02.219Z,23.47
2022-07-29T14:04:28.956Z,22.98
2022-07-29T14:06:55.808Z,23.47
2022-07-29T14:09:22.499Z,23.24
2022-07-29T14:11:49.245Z,24.06
2022-07-29T14:14:16.237Z,23.95
2022-07-29T14:16:47.890Z,24.61
2022-07-29T14:19:17.335Z,24.80
2022-07-29T14:21:54.611Z,24.13
2022-07-29T14:24:23.989Z,24.39
2022-07-29T14:26:52.626Z,24.42
2022-07-29T14:29:19.286Z,25.12
2022-07-29T14:31:46.031Z,25.11
2022-07-29T14:34:12.771Z,24.88
2022-07-29T14:36:39.455Z,25.02
2022-07-29T14:39:07.335Z,24.93
2022-07-29T14:41:34.010Z,24.60
2022-07-29T14:44:00.749Z,24.14
2022-07-29T14:46:28.460Z,24.09
2022-07-29T14:48:55.254Z,24.12
2022-07-29T14:51:21.936Z,24.02
2022-07-29T14:53:48.621Z,23.78
2022-07-29T14:56:36.166Z,24.09
2022-07-29T14:59:02.070Z,23.64
2022-07-29T15:01:28.908Z,23.89
2022-07-29T15:03:59.555Z,24.06
2022-07-29T15:06:27.981Z,23.77
2022-07-29T15:08:54.715Z,23.77
2022-07-29T15:11:21.401Z,24.60
2022-07-29T15:13:48.062Z,24.48
2022-07-29T15:16:14.858Z,24.14
2022-07-29T15:18:41.562Z,23.67
2022-07-29T15:21:08.342Z,24.30
2022-07-29T15:23:35.397Z,24.44
2022-07-29T15:26:02.124Z,24.13
2022-07-29T15:28:28.942Z,23.76
2022-07-29T15:30:55.722Z,24.07
2022-07-29T15:33:23.561Z,23.81
2022-07-29T15:35:52.732Z,23.74
2022-07-29T15:38:19.422Z,23.38
2022-07-29T15:40:46.103Z,23.57
2022-07-29T15:43:12.858Z,24.15
2022-07-29T15:45:42.126Z,23.88
2022-07-29T15:48:14.628Z,23.52
2022-07-29T15:50:41.668Z,23.41
2022-07-29T15:53:08.359Z,23.51
2022-07-29T15:55:34.998Z,23.81
2022-07-29T15:58:01.705Z,24.12
2022-07-29T16:00:28.432Z,24.34
2022-07-29T16:02:55.930Z,24.09
2022-07-29T16:05:22.709Z,24.12
2022-07-29T16:07:49.536Z,24.22
2022-07-29T16:10:16.190Z,24.02
2022-07-29T16:12:42.850Z,23.79
2022-07-29T16:15:10.633Z,23.97
2022-07-29T16:17:38.465Z,23.76
2022-07-29T16:20:05.955Z,23.63
2022-07-29T16:22:32.750Z,23.62
2022-07-29T16:24:59.419Z,24.20
2022-07-29T16:27:26.453Z,23.95
2022-07-29T16:30:02.093Z,24.11
2022-07-29T16:32:28.862Z,24.25
2022-07-29T16:34:55.573Z,24.46
2022-07-29T16:37:22.296Z,24.37
2022-07-29T16:39:48.939Z,23.89
2022-07-29T16:42:30.983Z,24.11
2022-07-29T16:45:03.119Z,23.61
2022-07-29T16:47:29.927Z,23.96
2022-07-29T16:49:56.813Z,24.02
2022-07-29T16:52:23.779Z,24.05
2022-07-29T16:54:50.653Z,23.64
2022-07-29T16:57:17.436Z,24.33
2022-07-29T16:59:44.204Z,23.90
2022-07-29T17:02:10.955Z,24.41
2022-07-29T17:04:37.717Z,24.96
2022-07-29T17:07:04.371Z,25.06
2022-07-29T17:09:31.068Z,25.25
2022-07-29T17:11:57.735Z,25.07
2022-07-29T17:14:29.375Z,24.95
2022-07-29T17:17:00.294Z,24.99
2022-07-29T17:19:31.362Z,24.71
2022-07-29T17:22:06.760Z,24.35
2022-07-29T17:24:38.277Z,24.22
2022-07-29T17:27:05.947Z,24.35
2022-07-29T17:29:32.770Z,24.37
2022-07-29T17:31:59.469Z,24.26
2022-07-29T17:34:26.542Z,24.38
2022-07-29T17:36:53.359Z,24.42
2022-07-29T17:39:20.120Z,24.20
2022-07-29T17:41:46.810Z,24.25
2022-07-29T17:44:13.981Z,24.71
2022-07-29T17:46:40.796Z,24.65
2022-07-29T17:49:07.560Z,24.94
2022-07-29T17:51:34.452Z,25.00
2022-07-29T17:54:01.179Z,24.84
2022-07-29T17:56:27.854Z,24.62
2022-07-29T17:58:54.572Z,24.99
2022-07-29T18:01:21.310Z,25.11
2022-07-29T18:03:48.056Z,24.68
2022-07-29T18:06:14.732Z,24.89
2022-07-29T18:08:41.499Z,24.90
2022-07-29T18:11:08.165Z,24.42
2022-07-29T18:13:41.721Z,24.38
2022-07-29T18:16:09.435Z,24.42
2022-07-29T18:18:36.382Z,24.13
2022-07-29T18:21:04.396Z,24.11
2022-07-29T18:23:31.345Z,24.55
2022-07-29T18:25:58.055Z,24.44
2022-07-29T18:28:25.736Z,24.52
2022-07-29T18:30:52.913Z,25.01
2022-07-29T18:33:21.614Z,24.79
2022-07-29T18:35:50.901Z,24.31
2022-07-29T18:38:17.827Z,23.95
2022-07-29T18:40:44.603Z,24.14
2022-07-29T18:43:11.761Z,23.85
2022-07-29T18:45:38.465Z,24.14
2022-07-29T18:48:06.784Z,24.44
2022-07-29T18:50:33.553Z,24.32
2022-07-29T18:53:00.299Z,24.49
2022-07-29T18:55:27.008Z,24.24
2022-07-29T18:57:56.689Z,22.64
2022-07-29T19:00:24.757Z,22.51
2022-07-29T19:02:51.980Z,22.67
2022-07-29T19:05:19.022Z,22.45
2022-07-29T19:07:45.718Z,22.56
2022-07-29T19:10:12.536Z,22.31
2022-07-29T19:12:39.200Z,22.37
2022-07-29T19:15:06.250Z,22.40
2022-07-29T19:17:32.969Z,22.37
2022-07-29T19:19:59.996Z,22.84
2022-07-29T19:22:26.686Z,22.39
2022-07-29T19:24:53.358Z,22.57
2022-07-29T19:27:21.411Z,23.52
2022-07-29T19:29:48.146Z,23.68
2022-07-29T19:32:24.799Z,23.67
2022-07-29T19:34:52.401Z,23.39
2022-07-29T19:37:19.151Z,23.05
2022-07-29T19:39:45.822Z,23.05
2022-07-29T19:42:12.641Z,22.94
2022-07-29T19:44:39.381Z,22.68
2022-07-29T19:47:06.092Z,22.67
2022-07-29T19:49:32.849Z,23.01
2022-07-29T19:51:59.887Z,22.79
2022-07-29T19:54:26.651Z,22.68
2022-07-29T19:56:53.359Z,22.90
2022-07-29T19:59:23.860Z,23.02
2022-07-29T20:01:51.386Z,22.89
2022-07-29T20:04:18.075Z,23.10
2022-07-29T20:06:44.783Z,22.74
2022-07-29T20:09:20.353Z,22.65
2022-07-29T20:11:47.230Z,22.83
2022-07-29T20:14:14.002Z,23.10
2022-07-29T20:16:40.726Z,23.07
2022-07-29T20:19:07.473Z,22.89
2022-07-29T20:21:34.177Z,22.63
2022-07-29T20:24:02.919Z,22.73
2022-07-29T20:26:34.035Z,22.81
2022-07-29T20:29:00.808Z,22.88
2022-07-29T20:31:27.904Z,22.66
2022-07-29T20:33:54.694Z,22.67
2022-07-29T20:36:21.453Z,22.60
2022-07-29T20:38:48.148Z,22.60
2022-07-29T20:41:15.431Z,22.60
2022-07-29T20:43:43.126Z,22.54
2022-07-29T20:46:10.004Z,22.50
2022-07-29T20:48:36.993Z,22.27
2022-07-29T20:51:03.695Z,22.48
2022-07-29T20:53:30.502Z,22.31
2022-07-29T20:55:57.295Z,22.60
2022-07-29T20:58:24.056Z,22.59
2022-07-29T21:00:51.295Z,22.70
2022-07-29T21:03:18.061Z,22.63
2022-07-29T21:05:44.908Z,22.59
2022-07-29T21:08:11.701Z,22.40
2022-07-29T21:10:38.361Z,22.48
2022-07-29T21:13:05.112Z,22.67
2022-07-29T21:15:32.342Z,22.77
2022-07-29T21:17:59.279Z,22.87
2022-07-29T21:20:26.638Z,22.57
2022-07-29T21:22:53.404Z,22.79
2022-07-29T21:25:20.106Z,22.13
2022-07-29T21:27:47.999Z,22.32
2022-07-29T21:30:14.755Z,22.14
2022-07-29T21:32:41.622Z,21.79
2022-07-29T21:35:14.501Z,21.76
2022-07-29T21:37:54.234Z,22.06
2022-07-29T21:40:21.435Z,22.04
2022-07-29T21:42:48.162Z,21.97
2022-07-29T21:45:16.561Z,22.01
2022-07-29T21:47:43.290Z,21.82
2022-07-29T21:50:10.098Z,21.63
2022-07-29T21:52:37.315Z,21.61
2022-07-29T21:55:04.516Z,21.77
2022-07-29T21:57:31.367Z,21.39
2022-07-29T22:00:02.511Z,21.62
2022-07-29T22:02:29.993Z,21.99
2022-07-29T22:04:56.695Z,21.69
2022-07-29T22:07:24.449Z,21.84
2022-07-29T22:10:11.178Z,21.94
2022-07-29T22:12:37.899Z,21.79
2022-07-29T22:15:05.410Z,21.62
2022-07-29T22:17:32.203Z,21.59
2022-07-29T22:19:58.922Z,21.76
2022-07-29T22:22:25.741Z,21.64
2022-07-29T22:24:52.729Z,21.31
2022-07-29T22:27:19.521Z,21.35
2022-07-29T22:29:46.224Z,21.42
2022-07-29T22:32:13.080Z,21.53
2022-07-29T22:34:39.820Z,21.65
2022-07-29T22:37:07.052Z,21.38
2022-07-29T22:39:33.759Z,21.30
2022-07-29T22:42:00.542Z,21.24
2022-07-29T22:44:27.319Z,21.30
2022-07-29T22:46:54.023Z,21.43
2022-07-29T22:49:20.868Z,21.55
2022-07-29T22:51:47.661Z,21.72
2022-07-29T22:54:14.556Z,21.87
2022-07-29T22:56:41.499Z,21.97
2022-07-29T22:59:08.227Z,21.99
2022-07-29T23:01:37.550Z,21.79
2022-07-29T23:04:04.619Z,21.97
2022-07-29T23:06:31.465Z,22.17
2022-07-29T23:08:58.202Z,22.15
2022-07-29T23:11:25.114Z,22.26
2022-07-29T23:13:53.992Z,22.27
2022-07-29T23:16:26.477Z,22.05
2022-07-29T23:18:54.497Z,22.11
2022-07-29T23:21:21.605Z,22.33
2022-07-29T23:23:49.272Z,22.28
2022-07-29T23:26:16.471Z,22.31
2022-07-29T23:28:46.320Z,22.46
2022-07-29T23:31:13.118Z,22.48
2022-07-29T23:33:41.084Z,22.15
2022-07-29T23:36:08.010Z,21.75
2022-07-29T23:38:34.766Z,21.52
2022-07-29T23:41:02.743Z,21.28
2022-07-29T23:43:29.456Z,21.34
2022-07-29T23:45:56.366Z,21.31
2022-07-29T23:48:25.010Z,21.54
2022-07-29T23:50:51.898Z,21.67
2022-07-29T23:53:18.812Z,21.87
2022-07-29T23:55:45.509Z,22.07
2022-07-29T23:58:12.293Z,21.80
